Viola, Idaho
Current Conditions -  °F | °C
As of 11:53 PM on Wednesday 28 Jan 2015 (Local Time) from KPUW Reporting Station
Clear Clear  
Wind Chill: 35°   Ceiling: Unl
Heat Index: 35°   Visibility: 10mi
Dew Point: 31°   Wind: 3mph
Humidity: 85%   Direction: 50°NE
Pressure: 30.41"   Gusts: NA
Location:  46.84°N, 117.02°W
Report Text: KPUW 290753Z AUTO 05003KT 10SM CLR 02/M01 A3041 RMK AO2 SLP315 T00171006 400940017
Loading
Personal Weather Stations






























Interactive Weather Map New forecast layout! Learn more

10-Day Weather Forecast

Advertisements
Track Severe Weather on mobile